Main page
METAR-TAF:

METAR-TAF

Airports :

Mount Pleasant Regional Airport

Mount Pleasant, Texas, United States

latitude: 33-05-43N, longitude: 094-57-41W, elevation: 364 ft

Current weather observation

The report was made 15 minutes ago, at 19:15 UTC
Wind 10 mph from the South
Temperature 79°F
Humidity 70%
Pressure 29.97 in. Hg
Visibility: 10 miles
Clear sky

METAR: KOSA 281915Z AUTO 19009KT 10SM CLR 26/20 A2997 RMK AO1 T02580197

Time: 14:30 (19:30 UTC)


TAF: missing

Weather observations and forecasts of more than 4000 airports (METAR and TAF reports).

The available stations are represented by yellow and red dots on the map.

Hover mouse over dot to see the name of the station.

Then click to see weather observations and forecasts.

To change the map : click on the green buttons with a black cross to zoom in, on the green button with a dash to zoom out, or on the green arrows for adjacent maps.


METAR-TAF: